Time,TemperatureF,DewpointF,PressureIn,WindDirection,WindDirectionDegrees,WindSpeedMPH,WindSpeedGustMPH,Humidity,HourlyPrecipIn,Conditions,Clouds,dailyrainin,SoftwareType,DateUTC
2013-08-13 00:00:00,82.6,72.7,29.97,SSE,160,0.0,11.0,72,0.00,,SKC,0.00,VWS V14.01,2013-08-13 05:00:00,
2013-08-13 00:01:00,82.5,73.0,29.97,SSE,161,0.0,5.0,73,0.00,,SKC,0.00,VWS V14.01,2013-08-13 05:01:00,
2013-08-13 00:06:00,82.3,72.8,29.97,SSE,161,0.0,0.0,73,0.00,,SKC,0.00,VWS V14.01,2013-08-13 05:06:00,
2013-08-13 00:10:00,82.3,72.8,29.97,SSE,161,0.0,5.0,73,0.00,,SKC,0.00,VWS V14.01,2013-08-13 05:10:00,
2013-08-13 00:11:00,82.1,72.6,29.97,SSE,161,0.0,4.0,73,0.00,,SKC,0.00,VWS V14.01,2013-08-13 05:11:00,
2013-08-13 00:16:00,81.9,72.8,29.97,SSE,161,0.0,0.0,74,0.00,,SKC,0.00,VWS V14.01,2013-08-13 05:16:00,
2013-08-13 00:20:00,81.9,72.8,29.97,SSE,161,0.0,4.0,74,0.00,,SKC,0.00,VWS V14.01,2013-08-13 05:20:00,
2013-08-13 00:21:00,81.7,73.0,29.97,SSE,161,0.0,6.0,75,0.00,,SKC,0.00,VWS V14.01,2013-08-13 05:21:00,
2013-08-13 00:26:00,81.5,72.8,29.97,SSE,161,0.0,0.0,75,0.00,,SKC,0.00,VWS V14.01,2013-08-13 05:26:00,
2013-08-13 00:30:00,81.6,72.9,29.97,SSE,161,0.0,6.0,75,0.00,,SKC,0.00,VWS V14.01,2013-08-13 05:30:00,
2013-08-13 00:31:00,81.4,72.7,29.97,SSE,160,3.0,7.0,75,0.00,,SKC,0.00,VWS V14.01,2013-08-13 05:31:00,
2013-08-13 00:36:00,81.3,73.0,29.98,SSE,160,0.0,0.0,76,0.00,,SKC,0.00,VWS V14.01,2013-08-13 05:36:00,
2013-08-13 00:40:00,81.3,73.0,29.98,SSE,160,0.0,7.0,76,0.00,,SKC,0.00,VWS V14.01,2013-08-13 05:40:00,
2013-08-13 00:41:00,81.2,72.9,29.98,SSE,160,0.0,0.0,76,0.00,,SKC,0.00,VWS V14.01,2013-08-13 05:41:00,
2013-08-13 00:46:00,81.1,73.2,29.98,SSE,160,0.0,0.0,77,0.00,,SKC,0.00,VWS V14.01,2013-08-13 05:46:00,
2013-08-13 00:50:00,81.1,73.2,29.97,SSE,160,0.0,7.0,77,0.00,,SKC,0.00,VWS V14.01,2013-08-13 05:50:00,
2013-08-13 00:51:00,80.9,73.0,29.97,SSE,160,0.0,3.0,77,0.00,,SKC,0.00,VWS V14.01,2013-08-13 05:51:00,
2013-08-13 00:56:00,80.8,73.3,29.97,SSE,160,0.0,0.0,78,0.00,,SKC,0.00,VWS V14.01,2013-08-13 05:56:00,
2013-08-13 01:00:00,80.8,73.3,29.97,SSE,160,0.0,4.0,78,0.00,,SKC,0.00,VWS V14.01,2013-08-13 06:00:00,
2013-08-13 01:01:00,80.7,73.2,29.97,SSE,160,1.0,3.0,78,0.00,,SKC,0.00,VWS V14.01,2013-08-13 06:01:00,
2013-08-13 01:06:00,80.5,73.4,29.97,SSE,160,0.0,1.0,79,0.00,,SKC,0.00,VWS V14.01,2013-08-13 06:06:00,
2013-08-13 01:10:00,80.6,73.5,29.97,SSE,160,0.0,6.0,79,0.00,,SKC,0.00,VWS V14.01,2013-08-13 06:10:00,
2013-08-13 01:11:00,80.4,73.3,29.97,SSE,160,0.0,7.0,79,0.00,,SKC,0.00,VWS V14.01,2013-08-13 06:11:00,
2013-08-13 01:16:00,80.3,73.6,29.97,SSE,160,0.0,0.0,80,0.00,,SKC,0.00,VWS V14.01,2013-08-13 06:16:00,
2013-08-13 01:20:00,80.3,73.6,29.97,SSE,160,0.0,7.0,80,0.00,,SKC,0.00,VWS V14.01,2013-08-13 06:20:00,
2013-08-13 01:21:00,80.2,73.5,29.97,SSE,160,0.0,0.0,80,0.00,,SKC,0.00,VWS V14.01,2013-08-13 06:21:00,
2013-08-13 01:26:00,80.1,73.4,29.97,SSE,160,0.0,0.0,80,0.00,,SKC,0.00,VWS V14.01,2013-08-13 06:26:00,
2013-08-13 01:30:00,80.1,73.4,29.97,SSE,160,0.0,5.0,80,0.00,,SKC,0.00,VWS V14.01,2013-08-13 06:30:00,
2013-08-13 01:31:00,79.9,73.6,29.97,SSE,160,0.0,1.0,81,0.00,,SKC,0.00,VWS V14.01,2013-08-13 06:31:00,
2013-08-13 01:36:00,79.8,73.4,29.97,SSE,160,0.0,0.0,81,0.00,,SKC,0.00,VWS V14.01,2013-08-13 06:36:00,
2013-08-13 01:40:00,79.8,73.5,29.97,SSE,160,0.0,1.0,81,0.00,,SKC,0.00,VWS V14.01,2013-08-13 06:40:00,
2013-08-13 01:41:00,79.7,73.4,29.97,SSE,160,0.0,0.0,81,0.00,,SKC,0.00,VWS V14.01,2013-08-13 06:41:00,
2013-08-13 01:46:00,79.6,73.3,29.97,SSE,160,0.0,0.0,81,0.00,,SKC,0.00,VWS V14.01,2013-08-13 06:46:00,
2013-08-13 01:50:00,79.6,73.3,29.97,SSE,160,0.0,0.0,81,0.00,,SKC,0.00,VWS V14.01,2013-08-13 06:50:00,
2013-08-13 01:51:00,79.4,73.4,29.97,SSE,160,0.0,0.0,82,0.00,,SKC,0.00,VWS V14.01,2013-08-13 06:51:00,
2013-08-13 01:56:00,79.3,73.3,29.97,SSE,160,0.0,0.0,82,0.00,,SKC,0.00,VWS V14.01,2013-08-13 06:56:00,
2013-08-13 02:00:00,79.3,73.3,29.97,SSE,160,0.0,0.0,82,0.00,,SKC,0.00,VWS V14.01,2013-08-13 07:00:00,
2013-08-13 02:01:00,79.2,73.2,29.97,SSE,160,0.0,0.0,82,0.00,,SKC,0.00,VWS V14.01,2013-08-13 07:01:00,
2013-08-13 02:06:00,79.1,73.5,29.97,SSE,160,0.0,0.0,83,0.00,,SKC,0.00,VWS V14.01,2013-08-13 07:06:00,
2013-08-13 02:10:00,79.1,73.5,29.97,SSE,160,0.0,1.0,83,0.00,,SKC,0.00,VWS V14.01,2013-08-13 07:10:00,
2013-08-13 02:11:00,79.0,73.8,29.97,SSE,160,0.0,0.0,84,0.00,,SKC,0.00,VWS V14.01,2013-08-13 07:11:00,
2013-08-13 02:16:00,78.9,73.7,29.97,SSE,160,0.0,0.0,84,0.00,,SKC,0.00,VWS V14.01,2013-08-13 07:16:00,
2013-08-13 02:20:00,78.9,73.7,29.97,SSE,160,0.0,0.0,84,0.00,,SKC,0.00,VWS V14.01,2013-08-13 07:20:00,
2013-08-13 02:21:00,78.8,73.9,29.97,SSE,160,0.0,1.0,85,0.00,,SKC,0.00,VWS V14.01,2013-08-13 07:21:00,
2013-08-13 02:26:00,78.7,73.8,29.97,SSE,160,0.0,0.0,85,0.00,,SKC,0.00,VWS V14.01,2013-08-13 07:26:00,
2013-08-13 02:30:00,78.8,73.9,29.97,SSE,160,0.0,1.0,85,0.00,,SKC,0.00,VWS V14.01,2013-08-13 07:30:00,
2013-08-13 02:31:00,78.6,73.7,29.97,SSE,160,0.0,1.0,85,0.00,,SKC,0.00,VWS V14.01,2013-08-13 07:31:00,
2013-08-13 02:36:00,78.6,74.1,29.97,SSE,160,0.0,0.0,86,0.00,,SKC,0.00,VWS V14.01,2013-08-13 07:36:00,
2013-08-13 02:40:00,78.6,74.1,29.97,SSE,160,0.0,1.0,86,0.00,,SKC,0.00,VWS V14.01,2013-08-13 07:40:00,
2013-08-13 02:41:00,78.5,74.0,29.97,SSE,160,0.0,4.0,86,0.00,,SKC,0.00,VWS V14.01,2013-08-13 07:41:00,
2013-08-13 02:46:00,78.4,73.9,29.97,SSE,160,0.0,0.0,86,0.00,,SKC,0.00,VWS V14.01,2013-08-13 07:46:00,
2013-08-13 02:50:00,78.4,73.9,29.97,SSE,160,0.0,4.0,86,0.00,,SKC,0.00,VWS V14.01,2013-08-13 07:50:00,
2013-08-13 02:51:00,78.4,74.2,29.97,SSE,160,0.0,7.0,87,0.00,,SKC,0.00,VWS V14.01,2013-08-13 07:51:00,
2013-08-13 02:56:00,78.3,74.1,29.97,SSE,160,0.0,0.0,87,0.00,,SKC,0.00,VWS V14.01,2013-08-13 07:56:00,
2013-08-13 03:00:00,78.3,74.1,29.97,SSE,160,0.0,7.0,87,0.00,,SKC,0.00,VWS V14.01,2013-08-13 08:00:00,
2013-08-13 03:01:00,78.2,74.0,29.96,SSE,160,0.0,2.0,87,0.00,,SKC,0.00,VWS V14.01,2013-08-13 08:01:00,
2013-08-13 03:06:00,78.2,74.4,29.97,SSE,160,0.0,0.0,88,0.00,,SKC,0.00,VWS V14.01,2013-08-13 08:06:00,
2013-08-13 03:10:00,78.2,74.4,29.96,SSE,160,0.0,2.0,88,0.00,,SKC,0.00,VWS V14.01,2013-08-13 08:10:00,
2013-08-13 03:11:00,78.1,74.3,29.96,SSE,160,0.0,0.0,88,0.00,,SKC,0.00,VWS V14.01,2013-08-13 08:11:00,
2013-08-13 03:16:00,78.1,74.3,29.96,SSE,160,0.0,0.0,88,0.00,,SKC,0.00,VWS V14.01,2013-08-13 08:16:00,
2013-08-13 03:20:00,78.1,74.3,29.97,SSE,160,0.0,2.0,88,0.00,,SKC,0.00,VWS V14.01,2013-08-13 08:20:00,
2013-08-13 03:21:00,78.0,74.2,29.97,SSE,160,0.0,0.0,88,0.00,,SKC,0.00,VWS V14.01,2013-08-13 08:21:00,
2013-08-13 03:26:00,77.9,74.4,29.96,SSE,160,0.0,0.0,89,0.00,,SKC,0.00,VWS V14.01,2013-08-13 08:26:00,
2013-08-13 03:30:00,77.9,74.4,29.96,SSE,160,0.0,0.0,89,0.00,,SKC,0.00,VWS V14.01,2013-08-13 08:30:00,
2013-08-13 03:31:00,77.8,74.3,29.96,SSE,160,0.0,0.0,89,0.00,,SKC,0.00,VWS V14.01,2013-08-13 08:31:00,
2013-08-13 03:36:00,77.8,74.3,29.96,SSE,160,0.0,0.0,89,0.00,,SKC,0.00,VWS V14.01,2013-08-13 08:36:00,
2013-08-13 03:40:00,77.8,74.3,29.96,SSE,160,0.0,4.0,89,0.00,,SKC,0.00,VWS V14.01,2013-08-13 08:40:00,
2013-08-13 03:41:00,77.7,74.2,29.96,SSE,160,0.0,3.0,89,0.00,,SKC,0.00,VWS V14.01,2013-08-13 08:41:00,
2013-08-13 03:46:00,77.6,74.1,29.96,SSE,160,0.0,0.0,89,0.00,,SKC,0.00,VWS V14.01,2013-08-13 08:46:00,
2013-08-13 03:50:00,77.6,74.1,29.96,SSE,160,0.0,3.0,89,0.00,,SKC,0.00,VWS V14.01,2013-08-13 08:50:00,
2013-08-13 03:51:00,77.5,74.3,29.96,SSE,160,0.0,0.0,90,0.00,,SKC,0.00,VWS V14.01,2013-08-13 08:51:00,
2013-08-13 03:56:00,77.4,74.2,29.96,SSE,160,0.0,0.0,90,0.00,,SKC,0.00,VWS V14.01,2013-08-13 08:56:00,
2013-08-13 04:00:00,77.4,74.2,29.96,SSE,160,0.0,0.0,90,0.00,,SKC,0.00,VWS V14.01,2013-08-13 09:00:00,
2013-08-13 04:01:00,77.4,74.2,29.96,SSE,160,0.0,0.0,90,0.00,,SKC,0.00,VWS V14.01,2013-08-13 09:01:00,
2013-08-13 04:06:00,77.3,74.1,29.96,SSE,160,0.0,0.0,90,0.00,,SKC,0.00,VWS V14.01,2013-08-13 09:06:00,
2013-08-13 04:10:00,77.3,74.1,29.96,SSE,160,0.0,0.0,90,0.00,,SKC,0.00,VWS V14.01,2013-08-13 09:10:00,
2013-08-13 04:11:00,77.2,74.0,29.96,SSE,160,0.0,0.0,90,0.00,,SKC,0.00,VWS V14.01,2013-08-13 09:11:00,
2013-08-13 04:16:00,77.1,73.9,29.96,SSE,160,0.0,0.0,90,0.00,,SKC,0.00,VWS V14.01,2013-08-13 09:16:00,
2013-08-13 04:20:00,77.1,73.9,29.96,SSE,160,0.0,0.0,90,0.00,,SKC,0.00,VWS V14.01,2013-08-13 09:20:00,
2013-08-13 04:21:00,77.0,73.8,29.97,SSE,160,0.0,0.0,90,0.00,,SKC,0.00,VWS V14.01,2013-08-13 09:21:00,
2013-08-13 04:26:00,76.9,74.1,29.97,SSE,160,0.0,0.0,91,0.00,,SKC,0.00,VWS V14.01,2013-08-13 09:26:00,
2013-08-13 04:30:00,76.9,74.1,29.96,SSE,160,0.0,0.0,91,0.00,,SKC,0.00,VWS V14.01,2013-08-13 09:30:00,
2013-08-13 04:31:00,76.8,74.0,29.97,SSE,160,0.0,0.0,91,0.00,,SKC,0.00,VWS V14.01,2013-08-13 09:31:00,
2013-08-13 04:36:00,76.8,74.0,29.97,SSE,160,0.0,0.0,91,0.00,,SKC,0.00,VWS V14.01,2013-08-13 09:36:00,
2013-08-13 04:40:00,76.8,74.0,29.97,SSE,160,0.0,0.0,91,0.00,,SKC,0.00,VWS V14.01,2013-08-13 09:40:00,
2013-08-13 04:41:00,76.7,73.9,29.97,SSE,160,0.0,0.0,91,0.00,,SKC,0.00,VWS V14.01,2013-08-13 09:41:00,
2013-08-13 04:46:00,76.6,73.8,29.97,SSE,160,0.0,0.0,91,0.00,,SKC,0.00,VWS V14.01,2013-08-13 09:46:00,
2013-08-13 04:50:00,76.6,73.8,29.97,SSE,160,0.0,0.0,91,0.00,,SKC,0.00,VWS V14.01,2013-08-13 09:50:00,
2013-08-13 04:51:00,76.6,73.8,29.97,SSE,160,0.0,0.0,91,0.00,,SKC,0.00,VWS V14.01,2013-08-13 09:51:00,
2013-08-13 04:56:00,76.5,73.7,29.97,SSE,160,0.0,0.0,91,0.00,,SKC,0.00,VWS V14.01,2013-08-13 09:56:00,
2013-08-13 05:00:00,76.5,73.7,29.97,SSE,160,0.0,0.0,91,0.00,,SKC,0.00,VWS V14.01,2013-08-13 10:00:00,
2013-08-13 05:01:00,76.4,73.9,29.97,SSE,160,0.0,1.0,92,0.00,,SKC,0.00,VWS V14.01,2013-08-13 10:01:00,
2013-08-13 05:06:00,76.4,73.9,29.97,SSE,160,0.0,0.0,92,0.00,,SKC,0.00,VWS V14.01,2013-08-13 10:06:00,
2013-08-13 05:10:00,76.4,73.9,29.97,SSE,160,0.0,1.0,92,0.00,,SKC,0.00,VWS V14.01,2013-08-13 10:10:00,
2013-08-13 05:11:00,76.3,73.8,29.97,SSE,160,0.0,0.0,92,0.00,,SKC,0.00,VWS V14.01,2013-08-13 10:11:00,
2013-08-13 05:16:00,76.3,73.5,29.97,SSE,160,0.0,0.0,91,0.00,,SKC,0.00,VWS V14.01,2013-08-13 10:16:00,
2013-08-13 05:20:00,76.2,73.4,29.97,SSE,160,0.0,0.0,91,0.00,,SKC,0.00,VWS V14.01,2013-08-13 10:20:00,
2013-08-13 05:21:00,76.2,73.4,29.97,SSE,160,0.0,0.0,91,0.00,,SKC,0.00,VWS V14.01,2013-08-13 10:21:00,
2013-08-13 05:26:00,76.1,73.3,29.97,SSE,160,0.0,0.0,91,0.00,,SKC,0.00,VWS V14.01,2013-08-13 10:26:00,
2013-08-13 05:30:00,76.1,73.3,29.97,SSE,160,0.0,0.0,91,0.00,,SKC,0.00,VWS V14.01,2013-08-13 10:30:00,
2013-08-13 05:31:00,76.1,73.6,29.97,SSE,160,0.0,0.0,92,0.00,,SKC,0.00,VWS V14.01,2013-08-13 10:31:00,
2013-08-13 05:36:00,76.0,73.5,29.97,SSE,160,0.0,0.0,92,0.00,,SKC,0.00,VWS V14.01,2013-08-13 10:36:00,
2013-08-13 05:40:00,76.1,73.6,29.97,SSE,160,0.0,0.0,92,0.00,,SKC,0.00,VWS V14.01,2013-08-13 10:40:00,
2013-08-13 05:41:00,76.0,73.5,29.97,SSE,160,0.0,0.0,92,0.00,,SKC,0.00,VWS V14.01,2013-08-13 10:41:00,
2013-08-13 05:46:00,75.9,73.4,29.97,SSE,160,0.0,0.0,92,0.00,,SKC,0.00,VWS V14.01,2013-08-13 10:46:00,
2013-08-13 05:50:00,75.9,73.4,29.97,SSE,160,0.0,0.0,92,0.00,,SKC,0.00,VWS V14.01,2013-08-13 10:50:00,
2013-08-13 05:51:00,75.9,73.4,29.97,SSE,160,0.0,0.0,92,0.00,,SKC,0.00,VWS V14.01,2013-08-13 10:51:00,
2013-08-13 05:56:00,75.9,73.4,29.97,SSE,160,0.0,0.0,92,0.00,,SKC,0.00,VWS V14.01,2013-08-13 10:56:00,
2013-08-13 06:00:00,75.9,73.4,29.97,SSE,160,0.0,1.0,92,0.00,,SKC,0.00,VWS V14.01,2013-08-13 11:00:00,
2013-08-13 06:01:00,75.9,73.4,29.97,SSE,160,0.0,0.0,92,0.00,,SKC,0.00,VWS V14.01,2013-08-13 11:01:00,
2013-08-13 06:06:00,75.9,73.4,29.98,SSE,160,0.0,0.0,92,0.00,,SKC,0.00,VWS V14.01,2013-08-13 11:06:00,
2013-08-13 06:10:00,76.0,73.5,29.97,SSE,160,0.0,0.0,92,0.00,,SKC,0.00,VWS V14.01,2013-08-13 11:10:00,
2013-08-13 06:11:00,76.0,73.5,29.98,SSE,160,0.0,0.0,92,0.00,,SKC,0.00,VWS V14.01,2013-08-13 11:11:00,
2013-08-13 06:16:00,76.0,73.5,29.97,SSE,160,0.0,0.0,92,0.00,,SKC,0.00,VWS V14.01,2013-08-13 11:16:00,
2013-08-13 06:20:00,76.0,73.5,29.97,SSE,160,0.0,0.0,92,0.00,,SKC,0.00,VWS V14.01,2013-08-13 11:20:00,
2013-08-13 06:21:00,76.0,73.5,29.97,SSE,160,0.0,6.0,92,0.00,,SKC,0.00,VWS V14.01,2013-08-13 11:21:00,
2013-08-13 06:26:00,76.0,73.5,29.97,SSE,160,0.0,0.0,92,0.00,,SKC,0.00,VWS V14.01,2013-08-13 11:26:00,
2013-08-13 06:30:00,76.0,73.5,29.97,SSE,160,0.0,6.0,92,0.00,,SKC,0.00,VWS V14.01,2013-08-13 11:30:00,
2013-08-13 06:31:00,76.0,73.5,29.97,SSE,160,0.0,6.0,92,0.00,,SKC,0.00,VWS V14.01,2013-08-13 11:31:00,
2013-08-13 06:36:00,76.0,73.5,29.97,SSE,160,0.0,0.0,92,0.00,,SKC,0.00,VWS V14.01,2013-08-13 11:36:00,
2013-08-13 06:40:00,76.0,73.5,29.97,SSE,160,0.0,6.0,92,0.00,,SKC,0.00,VWS V14.01,2013-08-13 11:40:00,
2013-08-13 06:41:00,76.0,73.5,29.98,SSE,160,0.0,7.0,92,0.00,,SKC,0.00,VWS V14.01,2013-08-13 11:41:00,
2013-08-13 06:46:00,76.0,73.5,29.98,SSE,160,0.0,0.0,92,0.00,,SKC,0.00,VWS V14.01,2013-08-13 11:46:00,
2013-08-13 06:50:00,76.0,73.5,29.97,SSE,160,0.0,7.0,92,0.00,,SKC,0.00,VWS V14.01,2013-08-13 11:50:00,
2013-08-13 06:51:00,76.0,73.5,29.97,SSE,160,0.0,0.0,92,0.00,,SKC,0.00,VWS V14.01,2013-08-13 11:51:00,
2013-08-13 06:56:00,76.0,73.5,29.98,SSE,160,1.0,1.0,92,0.00,,SKC,0.00,VWS V14.01,2013-08-13 11:56:00,
2013-08-13 07:00:00,76.0,73.5,29.98,SSE,160,1.0,1.0,92,0.00,,SKC,0.00,VWS V14.01,2013-08-13 12:00:00,
2013-08-13 07:01:00,76.0,73.5,29.97,SSE,160,0.0,1.0,92,0.00,,SKC,0.00,VWS V14.01,2013-08-13 12:01:00,
2013-08-13 07:06:00,76.0,73.5,29.98,SSE,160,0.0,0.0,92,0.00,,SKC,0.00,VWS V14.01,2013-08-13 12:06:00,
2013-08-13 07:10:00,76.0,73.5,29.97,SSE,160,0.0,4.0,92,0.00,,SKC,0.00,VWS V14.01,2013-08-13 12:10:00,
2013-08-13 07:11:00,76.0,73.5,29.98,SSE,160,0.0,0.0,92,0.00,,SKC,0.00,VWS V14.01,2013-08-13 12:11:00,
2013-08-13 07:16:00,76.0,73.5,29.98,SSE,160,0.0,0.0,92,0.00,,SKC,0.00,VWS V14.01,2013-08-13 12:16:00,
2013-08-13 07:20:00,76.1,73.6,29.98,South,171,0.0,1.0,92,0.00,,SKC,0.00,VWS V14.01,2013-08-13 12:20:00,
2013-08-13 07:25:00,76.1,73.6,29.98,South,171,6.0,6.0,92,0.00,,SKC,0.00,VWS V14.01,2013-08-13 12:25:00,
2013-08-13 07:26:00,76.1,73.6,29.98,South,171,6.0,6.0,92,0.00,,SKC,0.00,VWS V14.01,2013-08-13 12:26:00,
2013-08-13 07:30:00,76.1,73.6,29.98,South,171,4.0,6.0,92,0.00,,SKC,0.00,VWS V14.01,2013-08-13 12:30:00,
2013-08-13 07:35:00,76.1,73.6,29.98,South,171,0.0,0.0,92,0.00,,SKC,0.00,VWS V14.01,2013-08-13 12:35:00,
2013-08-13 07:40:00,76.1,73.6,29.98,South,172,0.0,6.0,92,0.00,,SKC,0.00,VWS V14.01,2013-08-13 12:40:00,
2013-08-13 07:45:00,76.2,73.7,29.98,South,178,3.0,7.0,92,0.00,,SKC,0.00,VWS V14.01,2013-08-13 12:45:00,
2013-08-13 07:50:00,76.3,73.8,29.98,South,178,0.0,5.0,92,0.00,,SKC,0.00,VWS V14.01,2013-08-13 12:50:00,
2013-08-13 07:55:00,76.4,73.9,29.98,South,183,0.0,8.0,92,0.00,,SKC,0.00,VWS V14.01,2013-08-13 12:55:00,
2013-08-13 08:00:00,76.5,73.7,29.98,South,183,5.0,5.0,91,0.00,,SKC,0.00,VWS V14.01,2013-08-13 13:00:00,
2013-08-13 08:05:00,76.7,73.9,29.98,South,186,0.0,7.0,91,0.00,,SKC,0.00,VWS V14.01,2013-08-13 13:05:00,
2013-08-13 08:10:00,76.9,74.1,29.98,South,190,0.0,8.0,91,0.00,,SKC,0.00,VWS V14.01,2013-08-13 13:10:00,
2013-08-13 08:15:00,77.1,73.9,29.99,South,190,0.0,8.0,90,0.00,,SKC,0.00,VWS V14.01,2013-08-13 13:15:00,
2013-08-13 08:20:00,77.3,74.1,29.99,SSW,196,0.0,9.0,90,0.00,,SKC,0.00,VWS V14.01,2013-08-13 13:20:00,
2013-08-13 08:25:00,77.5,74.3,29.99,SSW,193,6.0,9.0,90,0.00,,SKC,0.00,VWS V14.01,2013-08-13 13:25:00,
2013-08-13 08:30:00,77.7,74.2,29.99,SSW,197,0.0,7.0,89,0.00,,SKC,0.00,VWS V14.01,2013-08-13 13:30:00,
2013-08-13 08:35:00,77.9,74.1,29.99,South,190,2.0,7.0,88,0.00,,SKC,0.00,VWS V14.01,2013-08-13 13:35:00,
2013-08-13 08:40:00,78.1,74.3,29.99,South,191,0.0,6.0,88,0.00,,SKC,0.00,VWS V14.01,2013-08-13 13:40:00,
2013-08-13 08:45:00,78.3,74.5,29.99,SSW,193,0.0,8.0,88,0.00,,SKC,0.00,VWS V14.01,2013-08-13 13:45:00,
2013-08-13 08:50:00,78.7,74.5,29.99,SSW,196,0.0,6.0,87,0.00,,SKC,0.00,VWS V14.01,2013-08-13 13:50:00,
2013-08-13 08:55:00,79.2,74.3,30.00,SSW,196,0.0,6.0,85,0.00,,SKC,0.00,VWS V14.01,2013-08-13 13:55:00,
2013-08-13 09:00:00,79.6,74.3,30.00,SSW,196,0.0,5.0,84,0.00,,SKC,0.00,VWS V14.01,2013-08-13 14:00:00,
2013-08-13 09:05:00,80.1,74.8,30.00,SSW,198,0.0,5.0,84,0.00,,SKC,0.00,VWS V14.01,2013-08-13 14:05:00,
2013-08-13 09:10:00,80.6,75.3,30.00,SSW,200,0.0,6.0,84,0.00,,SKC,0.00,VWS V14.01,2013-08-13 14:10:00,
2013-08-13 09:15:00,81.2,75.6,30.00,SSW,200,0.0,7.0,83,0.00,,SKC,0.00,VWS V14.01,2013-08-13 14:15:00,
2013-08-13 09:20:00,81.9,75.1,30.00,South,180,1.0,8.0,80,0.00,,SKC,0.00,VWS V14.01,2013-08-13 14:20:00,
2013-08-13 09:25:00,82.4,74.9,30.00,South,185,1.0,8.0,78,0.00,,SKC,0.00,VWS V14.01,2013-08-13 14:25:00,
2013-08-13 09:30:00,82.9,74.9,30.00,South,187,5.0,8.0,77,0.00,,SKC,0.00,VWS V14.01,2013-08-13 14:30:00,
2013-08-13 09:35:00,83.1,74.8,30.00,SSW,203,3.0,8.0,76,0.00,,SKC,0.00,VWS V14.01,2013-08-13 14:35:00,
2013-08-13 09:40:00,83.4,74.2,30.00,SSW,197,0.0,7.0,74,0.00,,SKC,0.00,VWS V14.01,2013-08-13 14:40:00,
2013-08-13 09:45:00,83.6,74.4,30.00,SSW,201,4.0,9.0,74,0.00,,SKC,0.00,VWS V14.01,2013-08-13 14:45:00,
2013-08-13 09:50:00,83.8,74.6,30.00,SSW,200,1.0,3.0,74,0.00,,SKC,0.00,VWS V14.01,2013-08-13 14:50:00,
2013-08-13 09:55:00,84.1,74.9,30.00,SSW,200,0.0,7.0,74,0.00,,SKC,0.00,VWS V14.01,2013-08-13 14:55:00,
2013-08-13 10:00:00,84.5,74.9,30.00,SSW,200,0.0,7.0,73,0.00,,SKC,0.00,VWS V14.01,2013-08-13 15:00:00,
2013-08-13 10:05:00,84.9,74.9,30.01,SSW,196,0.0,7.0,72,0.00,,SKC,0.00,VWS V14.01,2013-08-13 15:05:00,
2013-08-13 10:10:00,85.3,75.2,30.00,SSW,196,1.0,6.0,72,0.00,,SKC,0.00,VWS V14.01,2013-08-13 15:10:00,
2013-08-13 10:15:00,85.6,74.7,30.00,SSW,207,3.0,9.0,70,0.00,,SKC,0.00,VWS V14.01,2013-08-13 15:15:00,
2013-08-13 10:20:00,85.8,74.9,30.00,SSW,203,0.0,7.0,70,0.00,,SKC,0.00,VWS V14.01,2013-08-13 15:20:00,
2013-08-13 10:25:00,86.0,74.7,30.00,SSW,205,1.0,7.0,69,0.00,,SKC,0.00,VWS V14.01,2013-08-13 15:25:00,
2013-08-13 10:30:00,86.3,74.5,30.00,SSW,205,0.0,5.0,68,0.00,,SKC,0.00,VWS V14.01,2013-08-13 15:30:00,
2013-08-13 10:35:00,86.4,74.2,30.00,SSW,198,4.0,7.0,67,0.00,,SKC,0.00,VWS V14.01,2013-08-13 15:35:00,
2013-08-13 10:40:00,86.7,74.4,30.00,SSW,202,0.0,7.0,67,0.00,,SKC,0.00,VWS V14.01,2013-08-13 15:40:00,
2013-08-13 10:45:00,87.3,74.6,30.00,SSW,197,1.0,7.0,66,0.00,,SKC,0.00,VWS V14.01,2013-08-13 15:45:00,
2013-08-13 10:50:00,87.7,74.0,30.00,South,190,0.0,8.0,64,0.00,,SKC,0.00,VWS V14.01,2013-08-13 15:50:00,
2013-08-13 10:55:00,88.0,73.8,30.00,SSW,192,4.0,8.0,63,0.00,,SKC,0.00,VWS V14.01,2013-08-13 15:55:00,
2013-08-13 11:00:00,88.4,74.2,29.99,South,189,2.0,5.0,63,0.00,,SKC,0.00,VWS V14.01,2013-08-13 16:00:00,
2013-08-13 11:05:00,88.8,73.6,29.99,South,189,0.0,8.0,61,0.00,,SKC,0.00,VWS V14.01,2013-08-13 16:05:00,
2013-08-13 11:10:00,89.1,73.9,29.99,South,190,0.0,7.0,61,0.00,,SKC,0.00,VWS V14.01,2013-08-13 16:10:00,
2013-08-13 11:15:00,89.4,74.2,30.00,South,184,2.0,9.0,61,0.00,,SKC,0.00,VWS V14.01,2013-08-13 16:15:00,
2013-08-13 11:20:00,89.6,73.9,29.99,South,184,0.0,4.0,60,0.00,,SKC,0.00,VWS V14.01,2013-08-13 16:20:00,
2013-08-13 11:25:00,89.8,73.6,29.99,South,188,0.0,7.0,59,0.00,,SKC,0.00,VWS V14.01,2013-08-13 16:25:00,
2013-08-13 11:30:00,90.1,73.3,29.99,SSW,198,5.0,8.0,58,0.00,,SKC,0.00,VWS V14.01,2013-08-13 16:30:00,
2013-08-13 11:35:00,90.3,73.5,29.99,SSW,201,2.0,8.0,58,0.00,,SKC,0.00,VWS V14.01,2013-08-13 16:35:00,
2013-08-13 11:40:00,90.6,73.3,29.99,SSW,201,0.0,7.0,57,0.00,,SKC,0.00,VWS V14.01,2013-08-13 16:40:00,
2013-08-13 11:45:00,91.0,73.1,29.99,SSW,195,1.0,8.0,56,0.00,,SKC,0.00,VWS V14.01,2013-08-13 16:45:00,
2013-08-13 11:50:00,91.3,72.9,29.99,SSW,194,0.0,4.0,55,0.00,,SKC,0.00,VWS V14.01,2013-08-13 16:50:00,
2013-08-13 11:55:00,91.6,73.7,29.99,SSW,194,0.0,4.0,56,0.00,,SKC,0.00,VWS V14.01,2013-08-13 16:55:00,
2013-08-13 12:00:00,92.0,73.5,29.99,SSW,198,9.0,9.0,55,0.00,,SKC,0.00,VWS V14.01,2013-08-13 17:00:00,
2013-08-13 12:05:00,92.1,73.6,29.99,SSW,198,0.0,9.0,55,0.00,,SKC,0.00,VWS V14.01,2013-08-13 17:05:00,
2013-08-13 12:10:00,92.2,73.7,29.99,SSW,198,1.0,9.0,55,0.00,,SKC,0.00,VWS V14.01,2013-08-13 17:10:00,
2013-08-13 12:12:00,92.4,72.8,29.99,SSW,194,0.0,6.0,53,0.00,,SKC,0.00,VWS V14.01,2013-08-13 17:12:00,
2013-08-13 12:17:00,92.7,72.5,29.98,South,190,0.0,5.0,52,0.00,,SKC,0.00,VWS V14.01,2013-08-13 17:17:00,
2013-08-13 12:20:00,92.6,72.4,29.99,South,188,0.0,10.0,52,0.00,,SKC,0.00,VWS V14.01,2013-08-13 17:20:00,
2013-08-13 12:22:00,93.0,73.3,29.98,SSW,193,1.0,8.0,53,0.00,,SKC,0.00,VWS V14.01,2013-08-13 17:22:00,
2013-08-13 12:27:00,93.0,73.3,29.98,SSW,193,0.0,3.0,53,0.00,,SKC,0.00,VWS V14.01,2013-08-13 17:27:00,
2013-08-13 12:30:00,93.0,73.3,29.98,SSW,193,1.0,8.0,53,0.00,,SKC,0.00,VWS V14.01,2013-08-13 17:30:00,
2013-08-13 12:32:00,93.3,73.1,29.98,SSW,194,0.0,6.0,52,0.00,,SKC,0.00,VWS V14.01,2013-08-13 17:32:00,
2013-08-13 12:37:00,93.6,72.8,29.98,SSW,198,0.0,6.0,51,0.00,,SKC,0.00,VWS V14.01,2013-08-13 17:37:00,
2013-08-13 12:40:00,93.4,72.6,29.98,SSW,196,3.0,7.0,51,0.00,,SKC,0.00,VWS V14.01,2013-08-13 17:40:00,
2013-08-13 12:42:00,93.9,73.0,29.98,SSW,198,0.0,6.0,51,0.00,,SKC,0.00,VWS V14.01,2013-08-13 17:42:00,
2013-08-13 12:47:00,94.0,73.1,29.98,SSW,198,0.0,6.0,51,0.00,,SKC,0.00,VWS V14.01,2013-08-13 17:47:00,
2013-08-13 12:50:00,94.0,73.7,29.98,SSW,198,0.0,6.0,52,0.00,,SKC,0.00,VWS V14.01,2013-08-13 17:50:00,
2013-08-13 12:52:00,94.3,72.8,29.98,SSW,198,0.0,7.0,50,0.00,,SKC,0.00,VWS V14.01,2013-08-13 17:52:00,
2013-08-13 12:57:00,94.5,71.2,29.97,South,190,0.0,0.0,47,0.00,,SKC,0.00,VWS V14.01,2013-08-13 17:57:00,
2013-08-13 13:00:00,94.4,71.1,29.97,South,190,0.0,10.0,47,0.00,,SKC,0.00,VWS V14.01,2013-08-13 18:00:00,
2013-08-13 13:02:00,94.7,72.0,29.97,South,191,0.0,7.0,48,0.00,,SKC,0.00,VWS V14.01,2013-08-13 18:02:00,
2013-08-13 13:07:00,95.0,71.0,29.97,SSW,195,0.0,2.0,46,0.00,,SKC,0.00,VWS V14.01,2013-08-13 18:07:00,
2013-08-13 13:10:00,95.0,71.0,29.97,SSW,195,0.0,8.0,46,0.00,,SKC,0.00,VWS V14.01,2013-08-13 18:10:00,
2013-08-13 13:12:00,95.5,72.1,29.97,SSW,196,4.0,7.0,47,0.00,,SKC,0.00,VWS V14.01,2013-08-13 18:12:00,
2013-08-13 13:17:00,95.6,72.2,29.97,SSW,197,3.0,4.0,47,0.00,,SKC,0.00,VWS V14.01,2013-08-13 18:17:00,
2013-08-13 13:20:00,95.6,70.9,29.97,SSW,196,0.0,7.0,45,0.00,,SKC,0.00,VWS V14.01,2013-08-13 18:20:00,
2013-08-13 13:22:00,95.9,72.4,29.97,SSW,202,0.0,8.0,47,0.00,,SKC,0.00,VWS V14.01,2013-08-13 18:22:00,
2013-08-13 13:27:00,96.0,71.9,29.96,SSW,202,0.0,0.0,46,0.00,,SKC,0.00,VWS V14.01,2013-08-13 18:27:00,
2013-08-13 13:30:00,96.0,71.9,29.96,SSW,202,0.0,8.0,46,0.00,,SKC,0.00,VWS V14.01,2013-08-13 18:30:00,
2013-08-13 13:32:00,96.2,72.1,29.96,South,190,6.0,8.0,46,0.00,,SKC,0.00,VWS V14.01,2013-08-13 18:32:00,
2013-08-13 13:37:00,96.1,70.7,29.96,South,189,0.0,1.0,44,0.00,,SKC,0.00,VWS V14.01,2013-08-13 18:37:00,
2013-08-13 13:40:00,96.2,71.4,29.96,South,189,0.0,8.0,45,0.00,,SKC,0.00,VWS V14.01,2013-08-13 18:40:00,
2013-08-13 13:42:00,96.3,70.9,29.96,South,188,0.0,5.0,44,0.00,,SKC,0.00,VWS V14.01,2013-08-13 18:42:00,
2013-08-13 13:47:00,96.6,72.4,29.95,South,188,7.0,8.0,46,0.00,,SKC,0.00,VWS V14.01,2013-08-13 18:47:00,
2013-08-13 13:50:00,96.5,71.7,29.95,South,188,1.0,7.0,45,0.00,,SKC,0.00,VWS V14.01,2013-08-13 18:50:00,
2013-08-13 13:52:00,96.8,72.0,29.95,SSW,197,1.0,9.0,45,0.00,,SKC,0.00,VWS V14.01,2013-08-13 18:52:00,
2013-08-13 13:57:00,96.8,71.3,29.95,SSW,196,0.0,0.0,44,0.00,,SKC,0.00,VWS V14.01,2013-08-13 18:57:00,
2013-08-13 14:00:00,96.9,71.4,29.95,SSW,196,0.0,9.0,44,0.00,,SKC,0.00,VWS V14.01,2013-08-13 19:00:00,
2013-08-13 14:02:00,97.0,71.5,29.94,SSW,194,3.0,5.0,44,0.00,,SKC,0.00,VWS V14.01,2013-08-13 19:02:00,
2013-08-13 14:07:00,97.2,70.3,29.94,SSW,194,0.0,1.0,42,0.00,,SKC,0.00,VWS V14.01,2013-08-13 19:07:00,
2013-08-13 14:10:00,97.1,70.9,29.94,SSW,194,1.0,6.0,43,0.00,,SKC,0.00,VWS V14.01,2013-08-13 19:10:00,
2013-08-13 14:12:00,97.6,71.3,29.94,South,190,4.0,8.0,43,0.00,,SKC,0.00,VWS V14.01,2013-08-13 19:12:00,
2013-08-13 14:17:00,98.1,71.8,29.94,South,189,1.0,6.0,43,0.00,,SKC,0.00,VWS V14.01,2013-08-13 19:17:00,
2013-08-13 14:20:00,98.0,71.7,29.94,South,190,0.0,8.0,43,0.00,,SKC,0.00,VWS V14.01,2013-08-13 19:20:00,
2013-08-13 14:22:00,98.3,71.3,29.94,South,188,2.0,8.0,42,0.00,,SKC,0.00,VWS V14.01,2013-08-13 19:22:00,
2013-08-13 14:27:00,98.3,71.3,29.93,South,188,0.0,2.0,42,0.00,,SKC,0.00,VWS V14.01,2013-08-13 19:27:00,
2013-08-13 14:30:00,98.3,71.3,29.93,South,188,0.0,8.0,42,0.00,,SKC,0.00,VWS V14.01,2013-08-13 19:30:00,
2013-08-13 14:32:00,98.6,71.6,29.93,SSW,193,0.0,7.0,42,0.00,,SKC,0.00,VWS V14.01,2013-08-13 19:32:00,
2013-08-13 14:37:00,99.2,71.4,29.93,SSW,198,0.0,1.0,41,0.00,,SKC,0.00,VWS V14.01,2013-08-13 19:37:00,
2013-08-13 14:40:00,99.0,71.2,29.93,SSW,198,0.0,7.0,41,0.00,,SKC,0.00,VWS V14.01,2013-08-13 19:40:00,
2013-08-13 14:42:00,99.4,70.8,29.92,SSW,198,4.0,7.0,40,0.00,,SKC,0.00,VWS V14.01,2013-08-13 19:42:00,
2013-08-13 14:47:00,99.4,70.8,29.92,SSW,198,0.0,4.0,40,0.00,,SKC,0.00,VWS V14.01,2013-08-13 19:47:00,
2013-08-13 14:50:00,99.4,70.8,29.92,SSW,198,3.0,7.0,40,0.00,,SKC,0.00,VWS V14.01,2013-08-13 19:50:00,
2013-08-13 14:52:00,99.4,70.8,29.91,SSW,199,0.0,4.0,40,0.00,,SKC,0.00,VWS V14.01,2013-08-13 19:52:00,
2013-08-13 14:57:00,99.2,71.4,29.91,SSW,199,0.0,0.0,41,0.00,,SKC,0.00,VWS V14.01,2013-08-13 19:57:00,
2013-08-13 15:00:00,99.3,70.7,29.91,SSW,199,0.0,4.0,40,0.00,,SKC,0.00,VWS V14.01,2013-08-13 20:00:00,
2013-08-13 15:02:00,99.4,71.6,29.91,SSW,192,0.0,3.0,41,0.00,,SKC,0.00,VWS V14.01,2013-08-13 20:02:00,
2013-08-13 15:07:00,99.6,71.7,29.90,South,190,0.0,1.0,41,0.00,,SKC,0.00,VWS V14.01,2013-08-13 20:07:00,
2013-08-13 15:10:00,99.5,70.9,29.90,South,190,0.0,3.0,40,0.00,,SKC,0.00,VWS V14.01,2013-08-13 20:10:00,
2013-08-13 15:12:00,99.9,70.5,29.90,South,190,2.0,5.0,39,0.00,,SKC,0.00,VWS V14.01,2013-08-13 20:12:00,
2013-08-13 15:17:00,99.9,69.8,29.90,SSW,192,0.0,7.0,38,0.00,,SKC,0.00,VWS V14.01,2013-08-13 20:17:00,
2013-08-13 15:20:00,99.9,69.8,29.90,South,191,0.0,5.0,38,0.00,,SKC,0.00,VWS V14.01,2013-08-13 20:20:00,
2013-08-13 15:22:00,100.0,69.8,29.90,SSW,192,0.0,7.0,38,0.00,,SKC,0.00,VWS V14.01,2013-08-13 20:22:00,
2013-08-13 15:27:00,100.2,70.8,29.89,South,186,0.0,4.0,39,0.00,,SKC,0.00,VWS V14.01,2013-08-13 20:27:00,
2013-08-13 15:30:00,100.1,70.7,29.90,South,186,2.0,7.0,39,0.00,,SKC,0.00,VWS V14.01,2013-08-13 20:30:00,
2013-08-13 15:32:00,100.3,70.9,29.89,South,170,0.0,7.0,39,0.00,,SKC,0.00,VWS V14.01,2013-08-13 20:32:00,
2013-08-13 15:37:00,100.1,69.9,29.89,South,170,0.0,0.0,38,0.00,,SKC,0.00,VWS V14.01,2013-08-13 20:37:00,
2013-08-13 15:40:00,100.1,69.9,29.89,South,170,0.0,7.0,38,0.00,,SKC,0.00,VWS V14.01,2013-08-13 20:40:00,
2013-08-13 15:42:00,100.1,69.9,29.89,South,170,0.0,3.0,38,0.00,,SKC,0.00,VWS V14.01,2013-08-13 20:42:00,
2013-08-13 15:47:00,100.2,70.0,29.88,South,175,2.0,5.0,38,0.00,,SKC,0.00,VWS V14.01,2013-08-13 20:47:00,
2013-08-13 15:50:00,100.1,69.9,29.89,South,170,0.0,3.0,38,0.00,,SKC,0.00,VWS V14.01,2013-08-13 20:50:00,
2013-08-13 15:52:00,100.6,70.4,29.88,South,180,1.0,7.0,38,0.00,,SKC,0.00,VWS V14.01,2013-08-13 20:52:00,
2013-08-13 15:57:00,101.0,69.9,29.88,South,176,0.0,5.0,37,0.00,,SKC,0.00,VWS V14.01,2013-08-13 20:57:00,
2013-08-13 16:00:00,100.9,70.7,29.88,South,176,1.0,7.0,38,0.00,,SKC,0.00,VWS V14.01,2013-08-13 21:00:00,
2013-08-13 16:02:00,100.7,69.7,29.88,SSE,165,0.0,5.0,37,0.00,,SKC,0.00,VWS V14.01,2013-08-13 21:02:00,
2013-08-13 16:07:00,100.4,70.2,29.88,SSE,165,0.0,1.0,38,0.00,,SKC,0.00,VWS V14.01,2013-08-13 21:07:00,
2013-08-13 16:10:00,100.5,70.3,29.88,SSE,165,0.0,5.0,38,0.00,,SKC,0.00,VWS V14.01,2013-08-13 21:10:00,
2013-08-13 16:12:00,100.4,69.4,29.87,SSE,149,0.0,7.0,37,0.00,,SKC,0.00,VWS V14.01,2013-08-13 21:12:00,
2013-08-13 16:17:00,100.5,68.7,29.87,SSE,156,0.0,4.0,36,0.00,,SKC,0.00,VWS V14.01,2013-08-13 21:17:00,
2013-08-13 16:20:00,100.5,69.5,29.87,SSE,157,2.0,8.0,37,0.00,,SKC,0.00,VWS V14.01,2013-08-13 21:20:00,
2013-08-13 16:22:00,100.6,68.0,29.87,SSE,156,0.0,4.0,35,0.00,,SKC,0.00,VWS V14.01,2013-08-13 21:22:00,
2013-08-13 16:27:00,100.7,69.7,29.87,SSE,159,0.0,1.0,37,0.00,,SKC,0.00,VWS V14.01,2013-08-13 21:27:00,
2013-08-13 16:30:00,100.7,69.7,29.87,SSE,159,0.0,5.0,37,0.00,,SKC,0.00,VWS V14.01,2013-08-13 21:30:00,
2013-08-13 16:32:00,100.9,69.1,29.87,SSE,160,1.0,3.0,36,0.00,,SKC,0.00,VWS V14.01,2013-08-13 21:32:00,
2013-08-13 16:37:00,101.1,69.2,29.86,SSE,160,0.0,0.0,36,0.00,,SKC,0.00,VWS V14.01,2013-08-13 21:37:00,
2013-08-13 16:40:00,101.1,70.0,29.86,SSE,160,0.0,3.0,37,0.00,,SKC,0.00,VWS V14.01,2013-08-13 21:40:00,
2013-08-13 16:42:00,101.4,68.7,29.86,SSE,160,0.0,2.0,35,0.00,,SKC,0.00,VWS V14.01,2013-08-13 21:42:00,
2013-08-13 16:47:00,101.5,68.8,29.86,SSE,160,1.0,3.0,35,0.00,,SKC,0.00,VWS V14.01,2013-08-13 21:47:00,
2013-08-13 16:50:00,101.5,68.8,29.86,SSE,160,0.0,3.0,35,0.00,,SKC,0.00,VWS V14.01,2013-08-13 21:50:00,
2013-08-13 16:52:00,101.3,68.6,29.86,SSE,157,0.0,4.0,35,0.00,,SKC,0.00,VWS V14.01,2013-08-13 21:52:00,
2013-08-13 16:57:00,101.4,68.7,29.86,South,169,0.0,0.0,35,0.00,,SKC,0.00,VWS V14.01,2013-08-13 21:57:00,
2013-08-13 17:00:00,101.4,68.7,29.86,South,169,0.0,9.0,35,0.00,,SKC,0.00,VWS V14.01,2013-08-13 22:00:00,
2013-08-13 17:02:00,101.5,68.8,29.86,South,169,1.0,3.0,35,0.00,,SKC,0.00,VWS V14.01,2013-08-13 22:02:00,
2013-08-13 17:07:00,101.4,68.7,29.86,SSE,167,2.0,4.0,35,0.00,,SKC,0.00,VWS V14.01,2013-08-13 22:07:00,
2013-08-13 17:10:00,101.4,68.7,29.86,SSE,167,0.0,6.0,35,0.00,,SKC,0.00,VWS V14.01,2013-08-13 22:10:00,
2013-08-13 17:12:00,101.2,68.5,29.85,SSE,167,0.0,4.0,35,0.00,,SKC,0.00,VWS V14.01,2013-08-13 22:12:00,
2013-08-13 17:17:00,101.0,68.3,29.86,SSE,165,0.0,6.0,35,0.00,,SKC,0.00,VWS V14.01,2013-08-13 22:17:00,
2013-08-13 17:20:00,101.1,68.4,29.86,SSE,166,3.0,7.0,35,0.00,,SKC,0.00,VWS V14.01,2013-08-13 22:20:00,
2013-08-13 17:22:00,100.9,69.1,29.85,SSE,165,0.0,6.0,36,0.00,,SKC,0.00,VWS V14.01,2013-08-13 22:22:00,
2013-08-13 17:27:00,100.9,68.2,29.85,SSE,165,0.0,0.0,35,0.00,,SKC,0.00,VWS V14.01,2013-08-13 22:27:00,
2013-08-13 17:30:00,100.9,68.2,29.85,SSE,165,0.0,6.0,35,0.00,,SKC,0.00,VWS V14.01,2013-08-13 22:30:00,
2013-08-13 17:32:00,101.0,68.3,29.85,SSE,165,0.0,1.0,35,0.00,,SKC,0.00,VWS V14.01,2013-08-13 22:32:00,
2013-08-13 17:37:00,101.0,68.3,29.85,SSE,165,0.0,2.0,35,0.00,,SKC,0.00,VWS V14.01,2013-08-13 22:37:00,
2013-08-13 17:40:00,101.0,68.3,29.85,SSE,165,2.0,6.0,35,0.00,,SKC,0.00,VWS V14.01,2013-08-13 22:40:00,
2013-08-13 17:42:00,100.7,68.1,29.85,SSE,165,0.0,2.0,35,0.00,,SKC,0.00,VWS V14.01,2013-08-13 22:42:00,
2013-08-13 17:47:00,100.3,67.7,29.85,SSE,165,0.0,0.0,35,0.00,,SKC,0.00,VWS V14.01,2013-08-13 22:47:00,
2013-08-13 17:50:00,100.4,68.6,29.85,SSE,165,0.0,2.0,36,0.00,,SKC,0.00,VWS V14.01,2013-08-13 22:50:00,
2013-08-13 17:52:00,100.0,67.5,29.85,SSE,165,0.0,1.0,35,0.00,,SKC,0.00,VWS V14.01,2013-08-13 22:52:00,
2013-08-13 17:57:00,99.8,67.3,29.85,SSE,165,0.0,2.0,35,0.00,,SKC,0.00,VWS V14.01,2013-08-13 22:57:00,
2013-08-13 18:00:00,99.9,67.4,29.85,SSE,165,0.0,2.0,35,0.00,,SKC,0.00,VWS V14.01,2013-08-13 23:00:00,
2013-08-13 18:02:00,99.6,67.9,29.85,SSE,165,0.0,2.0,36,0.00,,SKC,0.00,VWS V14.01,2013-08-13 23:02:00,
2013-08-13 18:07:00,99.5,67.0,29.85,SSE,165,0.0,0.0,35,0.00,,SKC,0.00,VWS V14.01,2013-08-13 23:07:00,
2013-08-13 18:10:00,99.6,67.1,29.84,SSE,165,0.0,2.0,35,0.00,,SKC,0.00,VWS V14.01,2013-08-13 23:10:00,
2013-08-13 18:12:00,99.5,67.8,29.84,SSE,165,0.0,0.0,36,0.00,,SKC,0.00,VWS V14.01,2013-08-13 23:12:00,
2013-08-13 18:17:00,99.4,66.9,29.84,SSE,165,1.0,5.0,35,0.00,,SKC,0.00,VWS V14.01,2013-08-13 23:17:00,
2013-08-13 18:20:00,99.4,66.9,29.84,SSE,165,3.0,4.0,35,0.00,,SKC,0.00,VWS V14.01,2013-08-13 23:20:00,
2013-08-13 18:22:00,99.2,66.8,29.84,South,169,0.0,7.0,35,0.00,,SKC,0.00,VWS V14.01,2013-08-13 23:22:00,
2013-08-13 18:27:00,99.0,66.6,29.84,South,169,0.0,1.0,35,0.00,,SKC,0.00,VWS V14.01,2013-08-13 23:27:00,
2013-08-13 18:30:00,99.0,67.4,29.84,South,169,0.0,7.0,36,0.00,,SKC,0.00,VWS V14.01,2013-08-13 23:30:00,
2013-08-13 18:32:00,98.7,67.1,29.84,South,169,0.0,3.0,36,0.00,,SKC,0.00,VWS V14.01,2013-08-13 23:32:00,
2013-08-13 18:37:00,98.3,66.8,29.84,South,169,0.0,0.0,36,0.00,,SKC,0.00,VWS V14.01,2013-08-13 23:37:00,
2013-08-13 18:40:00,98.4,66.9,29.84,South,169,0.0,3.0,36,0.00,,SKC,0.00,VWS V14.01,2013-08-13 23:40:00,
2013-08-13 18:42:00,97.8,67.1,29.84,South,169,0.0,2.0,37,0.00,,SKC,0.00,VWS V14.01,2013-08-13 23:42:00,
2013-08-13 18:47:00,97.3,66.7,29.84,South,169,0.0,0.0,37,0.00,,SKC,0.00,VWS V14.01,2013-08-13 23:47:00,
2013-08-13 18:50:00,97.4,66.8,29.84,South,169,0.0,2.0,37,0.00,,SKC,0.00,VWS V14.01,2013-08-13 23:50:00,
2013-08-13 18:52:00,97.0,66.4,29.84,South,169,0.0,1.0,37,0.00,,SKC,0.00,VWS V14.01,2013-08-13 23:52:00,
2013-08-13 18:57:00,96.7,66.2,29.83,South,169,0.0,0.0,37,0.00,,SKC,0.00,VWS V14.01,2013-08-13 23:57:00,
2013-08-13 19:00:00,96.8,66.2,29.84,South,169,0.0,1.0,37,0.00,,SKC,0.00,VWS V14.01,2013-08-14 00:00:00,
2013-08-13 19:02:00,96.6,66.8,29.84,South,169,0.0,0.0,38,0.00,,SKC,0.00,VWS V14.01,2013-08-14 00:02:00,
2013-08-13 19:07:00,96.5,66.8,29.84,South,169,0.0,0.0,38,0.00,,SKC,0.00,VWS V14.01,2013-08-14 00:07:00,
2013-08-13 19:10:00,96.5,66.0,29.84,South,169,0.0,0.0,37,0.00,,SKC,0.00,VWS V14.01,2013-08-14 00:10:00,
2013-08-13 19:12:00,96.3,67.3,29.84,South,169,0.0,0.0,39,0.00,,SKC,0.00,VWS V14.01,2013-08-14 00:12:00,
2013-08-13 19:17:00,96.1,67.2,29.84,South,169,0.0,0.0,39,0.00,,SKC,0.00,VWS V14.01,2013-08-14 00:17:00,
2013-08-13 19:20:00,96.1,66.4,29.84,South,169,0.0,0.0,38,0.00,,SKC,0.00,VWS V14.01,2013-08-14 00:20:00,
2013-08-13 19:22:00,95.9,66.2,29.84,South,169,0.0,3.0,38,0.00,,SKC,0.00,VWS V14.01,2013-08-14 00:22:00,
2013-08-13 19:27:00,95.8,66.1,29.84,South,169,2.0,2.0,38,0.00,,SKC,0.00,VWS V14.01,2013-08-14 00:27:00,
2013-08-13 19:30:00,95.8,66.1,29.84,South,169,0.0,3.0,38,0.00,,SKC,0.00,VWS V14.01,2013-08-14 00:30:00,
2013-08-13 19:32:00,95.7,66.8,29.84,South,169,0.0,3.0,39,0.00,,SKC,0.00,VWS V14.01,2013-08-14 00:32:00,
2013-08-13 19:37:00,95.5,65.9,29.84,South,169,0.0,0.0,38,0.00,,SKC,0.00,VWS V14.01,2013-08-14 00:37:00,
2013-08-13 19:40:00,95.6,66.0,29.84,South,169,0.0,3.0,38,0.00,,SKC,0.00,VWS V14.01,2013-08-14 00:40:00,
2013-08-13 19:42:00,95.3,65.7,29.84,South,169,0.0,0.0,38,0.00,,SKC,0.00,VWS V14.01,2013-08-14 00:42:00,
2013-08-13 19:47:00,95.2,65.6,29.84,South,169,0.0,0.0,38,0.00,,SKC,0.00,VWS V14.01,2013-08-14 00:47:00,
2013-08-13 19:50:00,95.2,65.6,29.84,South,169,0.0,1.0,38,0.00,,SKC,0.00,VWS V14.01,2013-08-14 00:50:00,
2013-08-13 19:52:00,94.9,65.3,29.84,South,169,0.0,0.0,38,0.00,,SKC,0.00,VWS V14.01,2013-08-14 00:52:00,
2013-08-13 19:57:00,94.7,65.9,29.84,South,169,0.0,0.0,39,0.00,,SKC,0.00,VWS V14.01,2013-08-14 00:57:00,
2013-08-13 20:00:00,94.8,66.0,29.84,South,169,0.0,0.0,39,0.00,,SKC,0.00,VWS V14.01,2013-08-14 01:00:00,
2013-08-13 20:02:00,94.5,65.7,29.84,South,169,0.0,0.0,39,0.00,,SKC,0.00,VWS V14.01,2013-08-14 01:02:00,
2013-08-13 20:07:00,94.3,65.6,29.85,South,169,0.0,0.0,39,0.00,,SKC,0.00,VWS V14.01,2013-08-14 01:07:00,
2013-08-13 20:10:00,94.4,66.4,29.85,South,169,0.0,0.0,40,0.00,,SKC,0.00,VWS V14.01,2013-08-14 01:10:00,
2013-08-13 20:12:00,94.0,66.0,29.85,South,169,0.0,0.0,40,0.00,,SKC,0.00,VWS V14.01,2013-08-14 01:12:00,
2013-08-13 20:17:00,93.7,66.5,29.85,South,169,0.0,0.0,41,0.00,,SKC,0.00,VWS V14.01,2013-08-14 01:17:00,
2013-08-13 20:20:00,93.8,66.6,29.85,South,169,0.0,0.0,41,0.00,,SKC,0.00,VWS V14.01,2013-08-14 01:20:00,
2013-08-13 20:22:00,93.3,66.1,29.85,South,169,0.0,0.0,41,0.00,,SKC,0.00,VWS V14.01,2013-08-14 01:22:00,
2013-08-13 20:27:00,93.0,66.5,29.85,South,169,0.0,0.0,42,0.00,,SKC,0.00,VWS V14.01,2013-08-14 01:27:00,
2013-08-13 20:30:00,93.1,65.9,29.85,South,169,0.0,0.0,41,0.00,,SKC,0.00,VWS V14.01,2013-08-14 01:30:00,
2013-08-13 20:32:00,92.7,66.3,29.85,South,169,0.0,0.0,42,0.00,,SKC,0.00,VWS V14.01,2013-08-14 01:32:00,
2013-08-13 20:37:00,92.4,66.0,29.85,South,169,0.0,0.0,42,0.00,,SKC,0.00,VWS V14.01,2013-08-14 01:37:00,
2013-08-13 20:40:00,92.5,66.1,29.85,South,169,0.0,0.0,42,0.00,,SKC,0.00,VWS V14.01,2013-08-14 01:40:00,
2013-08-13 20:41:00,92.2,65.8,29.85,South,169,0.0,0.0,42,0.00,,SKC,0.00,VWS V14.01,2013-08-14 01:41:00,
2013-08-13 20:46:00,91.9,66.2,29.85,South,169,0.0,0.0,43,0.00,,SKC,0.00,VWS V14.01,2013-08-14 01:46:00,
2013-08-13 20:50:00,92.0,66.3,29.85,South,169,0.0,0.0,43,0.00,,SKC,0.00,VWS V14.01,2013-08-14 01:50:00,
2013-08-13 20:51:00,91.6,66.0,29.85,South,169,0.0,0.0,43,0.00,,SKC,0.00,VWS V14.01,2013-08-14 01:51:00,
2013-08-13 20:56:00,91.3,65.7,29.85,South,169,0.0,0.0,43,0.00,,SKC,0.00,VWS V14.01,2013-08-14 01:56:00,
2013-08-13 21:00:00,91.3,65.7,29.85,South,169,0.0,0.0,43,0.00,,SKC,0.00,VWS V14.01,2013-08-14 02:00:00,
2013-08-13 21:02:00,90.9,65.3,29.85,South,169,0.0,0.0,43,0.00,,SKC,0.00,VWS V14.01,2013-08-14 02:02:00,
2013-08-13 21:07:00,90.6,65.1,29.86,South,169,0.0,0.0,43,0.00,,SKC,0.00,VWS V14.01,2013-08-14 02:07:00,
2013-08-13 21:10:00,90.7,65.2,29.86,South,169,0.0,0.0,43,0.00,,SKC,0.00,VWS V14.01,2013-08-14 02:10:00,
2013-08-13 21:12:00,90.5,65.0,29.86,South,169,0.0,0.0,43,0.00,,SKC,0.00,VWS V14.01,2013-08-14 02:12:00,
2013-08-13 21:17:00,90.4,64.9,29.86,South,169,0.0,0.0,43,0.00,,SKC,0.00,VWS V14.01,2013-08-14 02:17:00,
2013-08-13 21:20:00,90.4,64.9,29.86,South,169,0.0,0.0,43,0.00,,SKC,0.00,VWS V14.01,2013-08-14 02:20:00,
2013-08-13 21:22:00,90.4,65.5,29.86,South,169,0.0,0.0,44,0.00,,SKC,0.00,VWS V14.01,2013-08-14 02:22:00,
2013-08-13 21:27:00,90.2,65.4,29.86,South,169,0.0,0.0,44,0.00,,SKC,0.00,VWS V14.01,2013-08-14 02:27:00,
2013-08-13 21:30:00,90.2,65.4,29.86,South,169,0.0,0.0,44,0.00,,SKC,0.00,VWS V14.01,2013-08-14 02:30:00,
2013-08-13 21:32:00,89.9,65.1,29.87,South,169,0.0,0.0,44,0.00,,SKC,0.00,VWS V14.01,2013-08-14 02:32:00,
2013-08-13 21:37:00,89.7,64.9,29.87,South,169,0.0,0.0,44,0.00,,SKC,0.00,VWS V14.01,2013-08-14 02:37:00,
2013-08-13 21:40:00,89.7,64.9,29.87,South,169,0.0,0.0,44,0.00,,SKC,0.00,VWS V14.01,2013-08-14 02:40:00,
2013-08-13 21:42:00,89.5,65.4,29.87,South,169,0.0,0.0,45,0.00,,SKC,0.00,VWS V14.01,2013-08-14 02:42:00,
2013-08-13 21:47:00,89.4,65.9,29.87,South,169,0.0,0.0,46,0.00,,SKC,0.00,VWS V14.01,2013-08-14 02:47:00,
2013-08-13 21:50:00,89.4,65.9,29.88,South,169,0.0,0.0,46,0.00,,SKC,0.00,VWS V14.01,2013-08-14 02:50:00,
2013-08-13 21:52:00,89.2,65.7,29.88,South,169,0.0,0.0,46,0.00,,SKC,0.00,VWS V14.01,2013-08-14 02:52:00,
2013-08-13 21:57:00,88.9,65.5,29.88,South,169,0.0,0.0,46,0.00,,SKC,0.00,VWS V14.01,2013-08-14 02:57:00,
2013-08-13 22:00:00,89.0,65.6,29.88,South,169,0.0,0.0,46,0.00,,SKC,0.00,VWS V14.01,2013-08-14 03:00:00,
2013-08-13 22:02:00,88.6,65.8,29.88,South,169,0.0,0.0,47,0.00,,SKC,0.00,VWS V14.01,2013-08-14 03:02:00,
2013-08-13 22:07:00,88.3,66.1,29.89,South,169,0.0,2.0,48,0.00,,SKC,0.00,VWS V14.01,2013-08-14 03:07:00,
2013-08-13 22:10:00,88.3,66.1,29.88,South,169,1.0,4.0,48,0.00,,SKC,0.00,VWS V14.01,2013-08-14 03:10:00,
2013-08-13 22:12:00,88.0,67.1,29.89,South,169,0.0,2.0,50,0.00,,SKC,0.00,VWS V14.01,2013-08-14 03:12:00,
2013-08-13 22:17:00,87.6,68.9,29.89,South,169,0.0,7.0,54,0.00,,SKC,0.00,VWS V14.01,2013-08-14 03:17:00,
2013-08-13 22:20:00,87.7,67.9,29.89,South,169,7.0,7.0,52,0.00,,SKC,0.00,VWS V14.01,2013-08-14 03:20:00,
2013-08-13 22:22:00,87.3,69.7,29.89,South,169,3.0,7.0,56,0.00,,SKC,0.00,VWS V14.01,2013-08-14 03:22:00,
2013-08-13 22:27:00,87.2,71.1,29.89,SSE,164,10.0,10.0,59,0.00,,SKC,0.00,VWS V14.01,2013-08-14 03:27:00,
2013-08-13 22:30:00,87.2,70.6,29.89,SSE,166,2.0,10.0,58,0.00,,SKC,0.00,VWS V14.01,2013-08-14 03:30:00,
2013-08-13 22:32:00,87.1,71.5,29.89,SSE,166,5.0,13.0,60,0.00,,SKC,0.00,VWS V14.01,2013-08-14 03:32:00,
2013-08-13 22:37:00,87.0,71.9,29.89,SSE,162,4.0,6.0,61,0.00,,SKC,0.00,VWS V14.01,2013-08-14 03:37:00,
2013-08-13 22:40:00,87.1,72.0,29.89,SSE,162,4.0,13.0,61,0.00,,SKC,0.00,VWS V14.01,2013-08-14 03:40:00,
2013-08-13 22:42:00,86.9,71.8,29.89,SSE,162,7.0,7.0,61,0.00,,SKC,0.00,VWS V14.01,2013-08-14 03:42:00,
2013-08-13 22:47:00,86.7,72.1,29.89,SSE,162,3.0,3.0,62,0.00,,SKC,0.00,VWS V14.01,2013-08-14 03:47:00,
2013-08-13 22:50:00,86.8,72.2,29.90,SSE,162,0.0,7.0,62,0.00,,SKC,0.00,VWS V14.01,2013-08-14 03:50:00,
2013-08-13 22:52:00,86.5,72.4,29.89,SSE,162,5.0,10.0,63,0.00,,SKC,0.00,VWS V14.01,2013-08-14 03:52:00,
2013-08-13 22:57:00,86.3,72.2,29.89,SSE,161,3.0,12.0,63,0.00,,SKC,0.00,VWS V14.01,2013-08-14 03:57:00,
2013-08-13 23:00:00,86.4,72.3,29.89,SSE,160,3.0,13.0,63,0.00,,SKC,0.00,VWS V14.01,2013-08-14 04:00:00,
2013-08-13 23:01:00,86.2,72.1,29.89,SSE,162,0.0,12.0,63,0.00,,SKC,0.00,VWS V14.01,2013-08-14 04:01:00,
2013-08-13 23:06:00,85.9,72.3,29.90,SSE,161,0.0,0.0,64,0.00,,SKC,0.00,VWS V14.01,2013-08-14 04:06:00,
2013-08-13 23:10:00,86.0,72.4,29.90,SSE,161,0.0,12.0,64,0.00,,SKC,0.00,VWS V14.01,2013-08-14 04:10:00,
2013-08-13 23:11:00,85.7,72.1,29.90,SSE,161,0.0,4.0,64,0.00,,SKC,0.00,VWS V14.01,2013-08-14 04:11:00,
2013-08-13 23:16:00,85.5,72.4,29.90,SSE,161,1.0,4.0,65,0.00,,SKC,0.00,VWS V14.01,2013-08-14 04:16:00,
2013-08-13 23:20:00,85.5,72.4,29.90,SSE,161,0.0,7.0,65,0.00,,SKC,0.00,VWS V14.01,2013-08-14 04:20:00,
2013-08-13 23:21:00,85.2,72.1,29.90,SSE,161,4.0,6.0,65,0.00,,SKC,0.00,VWS V14.01,2013-08-14 04:21:00,
2013-08-13 23:26:00,84.9,72.3,29.89,SSE,161,3.0,3.0,66,0.00,,SKC,0.00,VWS V14.01,2013-08-14 04:26:00,
2013-08-13 23:30:00,85.0,72.4,29.90,SSE,161,0.0,6.0,66,0.00,,SKC,0.00,VWS V14.01,2013-08-14 04:30:00,
2013-08-13 23:31:00,84.7,72.1,29.89,SSE,161,2.0,5.0,66,0.00,,SKC,0.00,VWS V14.01,2013-08-14 04:31:00,
2013-08-13 23:36:00,84.5,72.3,29.90,SSE,161,7.0,7.0,67,0.00,,SKC,0.00,VWS V14.01,2013-08-14 04:36:00,
2013-08-13 23:40:00,84.5,72.3,29.90,SSE,161,0.0,5.0,67,0.00,,SKC,0.00,VWS V14.01,2013-08-14 04:40:00,
2013-08-13 23:41:00,84.3,72.6,29.90,SSE,161,0.0,7.0,68,0.00,,SKC,0.00,VWS V14.01,2013-08-14 04:41:00,
2013-08-13 23:46:00,84.2,72.5,29.90,SSE,161,0.0,0.0,68,0.00,,SKC,0.00,VWS V14.01,2013-08-14 04:46:00,
2013-08-13 23:50:00,84.2,72.5,29.90,SSE,161,0.0,7.0,68,0.00,,SKC,0.00,VWS V14.01,2013-08-14 04:50:00,
2013-08-13 23:51:00,84.0,72.7,29.90,SSE,161,0.0,3.0,69,0.00,,SKC,0.00,VWS V14.01,2013-08-14 04:51:00,
2013-08-13 23:56:00,83.8,72.6,29.90,SSE,161,0.0,6.0,69,0.00,,SKC,0.00,VWS V14.01,2013-08-14 04:56:00,